Hauptseite
METAR-TAF:

METAR-TAF

Flughäfen :

Bohrplattform

Euro, Niederlande

Breite: 51-59-52N, Länge: 3-16-30E, Höhe: 18 m

Beobachtung

Neuester Wetterbericht von vor 28 Minuten, um 05:55 UTC
Wind 11 kt aus Ost, variierte zwischen Ost/Nordost und Ost/Südost
Temperatur 2°C
Luftfeuchtigkeit 80%
Luftdruck 996 hPa
Sichtweite 10 km oder mehr

METAR: EHSA 230555Z AUTO 08011KT 060V120 9999 ///////// 02/M01 Q0996 W05/H7

Zeit: 07:23 (06:23 UTC)


TAF: fehlend

Wetterbeobachtungen und Prognosen von mehr als 4000 Flughäfen (METAR und TAF Bericht).

Die verfügbaren Stationen werden durch gelbe und rote Markierungen auf der Karte dargestellt.

Führen Sie die Maus auf sie, um den Namen der Station zu sehen.

Darauf klicken, um die Beobachtung von Wetterbeobachtungen und Prognosen zu sehen.

Um die Karte zu ändern : klicken Sie auf den grünen Tasten mit einem schwarzen Kreuz Zum Vergrößern, auf den grünen Button mit einem Gedankenstrich zu verkleinern, oder auf die grünen Pfeile für benachbarte Karten.


METAR-TAF: